Latest Weather Observations for Wattamolla

IDN60901

Issued at 7:41 pm EDT Thursday 19 January 2017 (issued every 10 minutes, with the page automatically refreshed every 10 minutes)

About weather observations | Map of Sydney area stations | Latest observations for Sydney area | Other Formats
Station Details ID: 066208 Name: WATTAMOLLA AWS Lat: -34.14 Lon: 151.12 Height: 44.0 m
Data from the previous 72 hours. | See also: Recent months for locations in New South Wales
Date/Time
EDT
Temp
°C
App
Temp
°C
Dew
Point
°C
Rel
Hum
%
Delta-T
°C
Wind Press
QNH
hPa
Press
MSL
hPa
Rain since
9am
mm
Dir  Spd
km/h
Gust
km/h
Spd
kts
Gust
kts
19/07:30pm - - - - - NNE 17 26 9 14 - - -
19/07:00pm - - - - - NE 19 28 10 15 - - -
19/06:30pm - - - - - NNE 19 26 10 14 - - -
19/06:00pm - - - - - NE 17 28 9 15 - - -
19/05:30pm - - - - - NE 15 24 8 13 - - -
19/05:00pm - - - - - NE 17 28 9 15 - - -
19/04:30pm - - - - - NE 15 26 8 14 - - -
19/04:00pm - - - - - NE 17 26 9 14 - - -
19/03:30pm - - - - - NE 13 24 7 13 - - -
19/03:00pm - - - - - NE 15 22 8 12 - - -
19/02:30pm - - - - - NE 15 22 8 12 - - -
19/02:00pm - - - - - NE 13 19 7 10 - - -
19/01:30pm - - - - - ENE 13 22 7 12 - - -
19/01:00pm - - - - - ENE 9 13 5 7 - - -
19/12:30pm - - - - - E 13 22 7 12 - - -
19/12:00pm - - - - - SE 15 22 8 12 - - -
19/11:30am - - - - - ENE 9 17 5 9 - - -
19/11:00am - - - - - NNE 11 17 6 9 - - -
19/10:30am - - - - - E 9 15 5 8 - - -
19/10:00am - - - - - SSE 13 17 7 9 - - -
19/09:30am - - - - - SSE 20 28 11 15 - - -
19/09:00am - - - - - SE 32 39 17 21 - - -
19/08:30am - - - - - SSE 24 35 13 19 - - -
19/08:00am - - - - - SSE 19 26 10 14 - - -
19/07:30am - - - - - SSE 20 28 11 15 - - -
19/07:00am - - - - - SSE 13 17 7 9 - - -
19/06:30am - - - - - SSE 13 17 7 9 - - -
19/06:00am - - - - - SSE 15 22 8 12 - - -
19/05:30am - - - - - SSE 26 33 14 18 - - -
19/05:00am - - - - - S 26 30 14 16 - - -
19/04:30am - - - - - SSE 26 30 14 16 - - -
19/04:00am - - - - - SSE 26 32 14 17 - - -
19/03:30am - - - - - SSE 30 37 16 20 - - -
19/03:00am - - - - - SSE 33 41 18 22 - - -
19/02:30am - - - - - SSE 35 44 19 24 - - -
19/02:00am - - - - - SSE 37 50 20 27 - - -
19/01:30am - - - - - SSE 41 50 22 27 - - -
19/01:00am - - - - - SSE 35 48 19 26 - - -
19/12:30am - - - - - SSE 37 54 20 29 - - -
19/12:00am - - - - - SSE 35 50 19 27 - - -
 
Date/Time
EDT
Temp
°C
App
Temp
°C
Dew
Point
°C
Rel
Hum
%
Delta-T
°C
Wind Press
QNH
hPa
Press
MSL
hPa
Rain since
9am
mm
Dir  Spd
km/h
Gust
km/h
Spd
kts
Gust
kts
18/11:35pm - - - - - SSE 37 56 20 30 - - -
18/11:30pm - - - - - SSE 39 54 21 29 - - -
18/11:00pm - - - - - SSE 37 54 20 29 - - -
18/10:58pm - - - - - SSE 37 54 20 29 - - -
18/10:30pm - - - - - SSE 33 48 18 26 - - -
18/10:13pm - - - - - SSE 37 56 20 30 - - -
18/10:00pm - - - - - SSE 39 54 21 29 - - -
18/09:57pm - - - - - SSE 35 54 19 29 - - -
18/09:30pm - - - - - SSE 35 43 19 23 - - -
18/09:00pm - - - - - SSE 39 52 21 28 - - -
18/08:30pm - - - - - SSE 41 50 22 27 - - -
18/08:00pm - - - - - SSE 50 61 27 33 - - -
18/07:30pm - - - - - SSE 50 61 27 33 - - -
18/07:00pm - - - - - SSE 52 63 28 34 - - -
18/06:30pm - - - - - SSE 54 65 29 35 - - -
18/06:19pm - - - - - SSE 52 70 28 38 - - -
18/06:00pm - - - - - SSE 56 70 30 38 - - -
18/05:52pm - - - - - SSE 52 70 28 38 - - -
18/05:30pm - - - - - SSE 57 70 31 38 - - -
18/05:00pm - - - - - SSE 52 59 28 32 - - -
18/04:30pm - - - - - SSE 54 65 29 35 - - -
18/04:00pm - - - - - SSE 48 61 26 33 - - -
18/03:30pm - - - - - S 48 56 26 30 - - -
18/03:00pm - - - - - S 44 52 24 28 - - -
18/02:30pm - - - - - S 43 54 23 29 - - -
18/02:00pm - - - - - S 37 46 20 25 - - -
18/01:30pm - - - - - S 35 46 19 25 - - -
18/01:00pm - - - - - S 37 46 20 25 - - -
18/12:30pm - - - - - S 33 41 18 22 - - -
18/12:00pm - - - - - S 26 37 14 20 - - -
18/11:30am - - - - - SSE 30 39 16 21 - - -
18/11:10am - - - - - S 30 48 16 26 - - -
18/11:00am - - - - - S 37 48 20 26 - - -
18/10:30am - - - - - S 33 48 18 26 - - -
18/10:25am - - - - - S 32 50 17 27 - - -
18/10:00am - - - - - S 39 56 21 30 - - -
18/09:30am - - - - - S 41 56 22 30 - - -
18/09:00am - - - - - S 48 70 26 38 - - -
18/08:58am - - - - - S 52 70 28 38 - - -
18/08:50am - - - - - SSW 41 63 22 34 - - -
18/08:44am - - - - - W 28 54 15 29 - - -
18/08:30am - - - - - WNW 28 35 15 19 - - -
18/08:00am - - - - - WNW 30 37 16 20 - - -
18/07:30am - - - - - NW 26 33 14 18 - - -
18/07:00am - - - - - NW 28 33 15 18 - - -
18/06:30am - - - - - NW 24 30 13 16 - - -
18/06:00am - - - - - NW 22 32 12 17 - - -
18/05:30am - - - - - NW 24 30 13 16 - - -
18/05:00am - - - - - NW 26 32 14 17 - - -
18/04:30am - - - - - NW 26 33 14 18 - - -
18/04:00am - - - - - NW 26 32 14 17 - - -
18/03:30am - - - - - NW 24 30 13 16 - - -
18/03:00am - - - - - NW 24 30 13 16 - - -
18/02:30am - - - - - NW 20 30 11 16 - - -
18/02:00am - - - - - NW 19 26 10 14 - - -
18/01:30am - - - - - NW 13 19 7 10 - - -
18/01:00am - - - - - NNW 6 11 3 6 - - -
18/12:30am - - - - - NNW 9 13 5 7 - - -
18/12:00am - - - - - NNW 13 17 7 9 - - -
 
Date/Time
EDT
Temp
°C
App
Temp
°C
Dew
Point
°C
Rel
Hum
%
Delta-T
°C
Wind Press
QNH
hPa
Press
MSL
hPa
Rain since
9am
mm
Dir  Spd
km/h
Gust
km/h
Spd
kts
Gust
kts
17/11:30pm - - - - - N 13 17 7 9 - - -
17/11:00pm - - - - - N 11 19 6 10 - - -
17/10:30pm - - - - - NE 15 28 8 15 - - -
17/10:00pm - - - - - NNE 17 28 9 15 - - -
17/09:30pm - - - - - NNE 19 24 10 13 - - -
17/09:00pm - - - - - NE 17 26 9 14 - - -
17/08:30pm - - - - - W 19 33 10 18 - - -
17/08:17pm - - - - - N 15 52 8 28 - - -
17/08:00pm - - - - - NNE 20 28 11 15 - - -
17/07:30pm - - - - - N 9 15 5 8 - - -
17/07:00pm - - - - - N 13 17 7 9 - - -
17/06:30pm - - - - - NE 19 24 10 13 - - -
17/06:00pm - - - - - ENE 22 30 12 16 - - -
17/05:30pm - - - - - NE 22 30 12 16 - - -
17/05:00pm - - - - - NE 26 33 14 18 - - -
17/04:30pm - - - - - ENE 20 32 11 17 - - -
17/04:00pm - - - - - ENE 19 28 10 15 - - -
17/03:30pm - - - - - NE 17 26 9 14 - - -
17/03:00pm - - - - - NE 22 32 12 17 - - -
17/02:30pm - - - - - NE 17 26 9 14 - - -
17/02:00pm - - - - - NNE 20 28 11 15 - - -
17/01:30pm - - - - - NE 24 32 13 17 - - -
17/01:00pm - - - - - NE 26 33 14 18 - - -
17/12:30pm - - - - - NE 20 28 11 15 - - -
17/12:00pm - - - - - N 20 33 11 18 - - -
17/11:30am - - - - - N 22 32 12 17 - - -
17/11:00am - - - - - N 20 30 11 16 - - -
17/10:30am - - - - - N 17 26 9 14 - - -
17/10:00am - - - - - NNW 20 28 11 15 - - -
17/09:30am - - - - - N 17 22 9 12 - - -
17/09:00am - - - - - NNW 15 22 8 12 - - -
17/08:30am - - - - - N 17 20 9 11 - - -
17/08:00am - - - - - NNW 11 15 6 8 - - -
17/07:30am - - - - - N 13 19 7 10 - - -
17/07:00am - - - - - N 11 15 6 8 - - -
17/06:30am - - - - - NNW 9 11 5 6 - - -
17/06:00am - - - - - NNW 13 19 7 10 - - -
17/05:30am - - - - - NNW 13 15 7 8 - - -
17/05:00am - - - - - NNW 13 13 7 7 - - -
17/04:30am - - - - - NNW 9 11 5 6 - - -
17/04:00am - - - - - NNW 9 11 5 6 - - -
17/03:30am - - - - - NNW 7 13 4 7 - - -
17/03:00am - - - - - NNW 11 13 6 7 - - -
17/02:30am - - - - - NNW 7 9 4 5 - - -
17/02:00am - - - - - NNW 9 13 5 7 - - -
17/01:30am - - - - - N 15 19 8 10 - - -
17/01:00am - - - - - N 13 19 7 10 - - -
17/12:30am - - - - - N 17 26 9 14 - - -
17/12:00am - - - - - N 15 20 8 11 - - -
 
Date/Time
EDT
Temp
°C
App
Temp
°C
Dew
Point
°C
Rel
Hum
%
Delta-T
°C
Wind Press
QNH
hPa
Press
MSL
hPa
Rain since
9am
mm
Dir  Spd
km/h
Gust
km/h
Spd
kts
Gust
kts
16/11:30pm - - - - - N 20 26 11 14 - - -
16/11:00pm - - - - - N 30 41 16 22 - - -
16/10:30pm - - - - - N 26 33 14 18 - - -
16/10:00pm - - - - - N 26 33 14 18 - - -
16/09:30pm - - - - - N 28 35 15 19 - - -
16/09:00pm - - - - - N 32 41 17 22 - - -
16/08:30pm - - - - - NNE 30 43 16 23 - - -
16/08:00pm - - - - - N 32 43 17 23 - - -

Latest Capital City Observations: Canberra | Sydney | Melbourne | Brisbane | Adelaide | Perth | Hobart | Darwin

Other Formats:

Comma delimited format used in spreadsheet applications
http://www.bom.gov.au/fwo/IDN60901/IDN60901.95752.axf

JavaScript Object Notation format (JSON) in row-major order
http://www.bom.gov.au/fwo/IDN60901/IDN60901.95752.json